ADDS METAR Data INFO
IDs: Format: Raw Decoded Include TAF

Data at: 0020 UTC 11 Dec 2017

KA08 110015Z AUTO 00000KT 10SM CLR 04/01 A3028 RMK AO2 T00360010
KA08 102355Z AUTO 00000KT 10SM CLR 04/01 A3028 RMK AO2 T00370011 10095 20037
KA08 102335Z AUTO 20003KT 10SM CLR 06/00 A3028 RMK AO2 T00611004
KA08 102315Z AUTO 20003KT 10SM CLR 07/M01 A3028 RMK AO2 T00701010
KA08 102255Z AUTO 20003KT 10SM CLR 07/00 A3028 RMK AO2 T00731005
KA08 102235Z AUTO 20004KT 10SM CLR 08/M01 A3027 RMK AO2 T00791006
KA08 102215Z AUTO 21003KT 10SM CLR 09/M01 A3027 RMK AO2 T00871006
KA08 102155Z AUTO 22004KT 10SM CLR 09/M01 A3027 RMK AO2 T00901012
KA08 102135Z AUTO 25003KT 10SM CLR 10/M02 A3028 RMK AO2 T00951017
KA08 102115Z AUTO 21004KT 10SM CLR 10/M01 A3028 RMK AO2 T00951010
KA08 102055Z AUTO 25006KT 10SM CLR 10/M01 A3029 RMK AO2 T00951012
KA08 102035Z AUTO 24004KT 10SM CLR 09/M01 A3029 RMK AO2 T00931013
KA08 102015Z AUTO 28006KT 10SM CLR 09/M01 A3030 RMK AO2 T00891013
KA08 101955Z AUTO 27008G15KT 10SM CLR 09/M01 A3030 RMK AO2 T00851011
KA08 101935Z AUTO 26005KT 10SM CLR 08/M01 A3030 RMK AO2 T00831008
KA08 101915Z AUTO 23007KT 10SM CLR 08/00 A3031 RMK AO2 T00821004
KA08 101855Z AUTO 29006G16KT 10SM CLR 08/M01 A3033 RMK AO2 T00751012
KA08 101655Z AUTO 27004KT 10SM CLR 05/M02 A3038 RMK AO2 T00531019
KA08 101635Z AUTO 23004KT 10SM CLR 05/M02 A3038 RMK AO2 T00491018
KA08 101615Z AUTO 24004KT 10SM CLR 05/M02 A3039 RMK AO2 T00451021
KA08 101555Z AUTO 29004KT 10SM CLR 04/M01 A3039 RMK AO2 T00401013
KA08 101540Z AUTO 24003KT 10SM CLR 04/M01 A3038 RMK AO2 T00351011
KA08 101455Z AUTO 27004KT 10SM CLR 01/00 A3038 RMK AO2 T00111004
KA08 101435Z AUTO 28006KT 10SM CLR 00/00 A3037 RMK AO2 T00001005
KA08 101415Z AUTO 28005KT 10SM CLR M01/M01 A3037 RMK AO2 T10081013
KA08 101355Z AUTO 28004KT 10SM CLR M01/M02 A3036 RMK AO2 T10151017
KA08 101335Z AUTO 00000KT 10SM CLR M02/M02 A3036 RMK AO2 T10251025
KA08 101315Z AUTO 00000KT 10SM CLR M03/M03 A3036 RMK AO2 T10301031
KA08 101255Z AUTO 00000KT 10SM CLR M03/M03 A3035 RMK AO2 T10321033
KA08 101235Z AUTO 00000KT 10SM CLR M03/M04 A3034 RMK AO2 T10351036
KA08 101215Z AUTO 00000KT 10SM CLR M03/M03 A3033 RMK AO2 T10271027
KA08 101155Z AUTO 31004KT 10SM CLR M03/M03 A3033 RMK AO2 70036 T10271027 11005 21035
KA08 101135Z AUTO 00000KT 10SM CLR M03/M03 A3033 RMK AO2 T10281028
KA08 101115Z AUTO 28007KT 10SM CLR M03/M03 A3033 RMK AO2 T10351035
KA08 101055Z AUTO 00000KT 10SM CLR M03/M03 A3033 RMK AO2 T10301030
KA08 101035Z AUTO 00000KT 10SM CLR M02/M02 A3032 RMK AO2 T10211021
KA08 101015Z AUTO 00000KT 10SM CLR M02/M02 A3032 RMK AO2 T10201020
KA08 100955Z AUTO 29003KT 10SM CLR M02/M02 A3032 RMK AO2 T10201020
KA08 100935Z AUTO 00000KT 10SM CLR M02/M02 A3032 RMK AO2 T10201020
KA08 100915Z AUTO 00000KT 10SM CLR M02/M02 A3032 RMK AO2 T10201020
KA08 100855Z AUTO 00000KT 10SM CLR M02/M02 A3031 RMK AO2 T10211024
KA08 100835Z AUTO 26003KT 10SM CLR M01/M02 A3030 RMK AO2 T10151020
KA08 100815Z AUTO 28003KT 10SM CLR M02/M02 A3029 RMK AO2 T10161024
KA08 100755Z AUTO 00000KT 10SM CLR M01/M02 A3029 RMK AO2 T10111023
KA08 100735Z AUTO 03004KT 10SM CLR M01/M01 A3028 RMK AO2 T10121012
KA08 100715Z AUTO 00000KT 10SM CLR M01/M01 A3027 RMK AO2 T10101011
KA08 100655Z AUTO 33003KT 10SM CLR M01/M01 A3028 RMK AO2 T10131013
KA08 100635Z AUTO 00000KT 10SM CLR M01/M01 A3028 RMK AO2 T10111011
KA08 100615Z AUTO 00000KT 10SM CLR M01/M01 A3028 RMK AO2 T10101013
KA08 100555Z AUTO 31003KT 10SM CLR M01/M02 A3028 RMK AO2 T10101016 10025 21010 400551029
KA08 100535Z AUTO 31003KT 10SM CLR 00/M01 A3027 RMK AO2 T00001015
KA08 100510Z AUTO 32004KT 10SM CLR 01/M01 A3026 RMK AO2 T00071015
KA08 100455Z AUTO 31004KT 10SM CLR 01/M01 A3026 RMK AO2 T00081013
KA08 100435Z AUTO 31005KT 10SM CLR 01/M01 A3026 RMK AO2 T00121012
KA08 100410Z AUTO 30003KT 10SM CLR 00/00 A3024 RMK AO2 T00001005
KA08 100355Z AUTO 00000KT 10SM CLR 00/M01 A3023 RMK AO2 T00021007
KA08 100335Z AUTO 00000KT 10SM CLR 01/M01 A3022 RMK AO2 T00061006
KA08 100315Z AUTO 27005KT 10SM CLR 01/00 A3021 RMK AO2 T00061005
KA08 100250Z AUTO 27003KT 10SM CLR 01/00 A3020 RMK AO2 T00081005
KA08 100235Z AUTO 00000KT 10SM CLR 01/00 A3020 RMK AO2 T00101005
KA08 100215Z AUTO 28003KT 10SM CLR 01/00 A3019 RMK AO2 T00121004
KA08 100155Z AUTO 27004KT 10SM CLR 01/00 A3018 RMK AO2 T00091001
KA08 100135Z AUTO 28003KT 10SM CLR 01/00 A3017 RMK AO2 T00121002
KA08 100110Z AUTO 24003KT 10SM CLR 02/00 A3017 RMK AO2 T00191002
KA08 100055Z AUTO 00000KT 10SM CLR 02/00 A3016 RMK AO2 T00201003
KA08 100035Z AUTO 25003KT 10SM CLR 02/00 A3015 RMK AO2 T00201002
KA08 100015Z AUTO 24003KT 10SM CLR 02/00 A3015 RMK AO2 T00221003
KA08 092355Z AUTO 24004KT 10SM CLR 03/00 A3014 RMK AO2 60027 T00251002 10055 20025
KA08 092335Z AUTO 23003KT 10SM CLR 03/00 A3013 RMK AO2 T00311002
KA08 092315Z AUTO 23005KT 10SM CLR 03/00 A3011 RMK AO2 T00341001
KA08 092255Z AUTO 23004KT 10SM CLR 04/00 A3010 RMK AO2 T00381001
KA08 092235Z AUTO 24004KT 10SM CLR 04/00 A3009 RMK AO2 T00440000
KA08 092215Z AUTO 24006KT 10SM CLR 05/00 A3009 RMK AO2 T00501003
KA08 092155Z AUTO 25007KT 10SM CLR 05/00 A3008 RMK AO2 T00531002
KA08 092135Z AUTO 25005KT 10SM CLR 05/00 A3007 RMK AO2 T00531004
KA08 092115Z AUTO 25008KT 10SM CLR 05/00 A3007 RMK AO2 T00531005
KA08 092055Z AUTO 25007KT 10SM CLR 05/00 A3007 RMK AO2 60027 T00521004
KA08 092035Z AUTO 25008KT 210V280 10SM CLR 05/00 A3006 RMK AO2 T00511003
KA08 092015Z AUTO 22007KT 10SM CLR 05/00 A3006 RMK AO2 T00471004
KA08 091955Z AUTO 24008KT 10SM CLR 05/M01 A3007 RMK AO2 P0012 T00451010
KA08 091935Z AUTO 26009KT 10SM CLR 04/M01 A3008 RMK AO2 P0011 T00401015
KA08 091850Z AUTO 26008KT 10SM CLR 04/M01 A3008 RMK AO2 P0013 T00351009
KA08 091835Z AUTO 23007KT 10SM CLR 03/M02 A3008 RMK AO2 P0010 T00311016
KA08 091815Z AUTO 24009KT 10SM CLR 03/M02 A3010 RMK AO2 P0003 T00271019
KA08 091755Z AUTO 25005KT 10SM CLR 02/M01 A3011 RMK AO2 P0006 60008 T00231015 10023 21029
KA08 091735Z AUTO 25006KT 10SM CLR 02/M02 A3012 RMK AO2 P0004 T00201018
KA08 091715Z AUTO 26006KT 10SM CLR 02/M02 A3012 RMK AO2 P0002 T00161025
KA08 091655Z AUTO 27005KT 10SM CLR 01/M03 A3012 RMK AO2 P0001 T00131030
KA08 091615Z AUTO 26005KT 10SM CLR 00/M03 A3012 RMK AO2 P0001 T00041030
KA08 091550Z AUTO 27005KT 10SM CLR 00/M03 A3012 RMK AO2 P0001 T00001035
KA08 091535Z AUTO 28004KT 10SM CLR 00/M03 A3012 RMK AO2 T10051034
KA08 091510Z AUTO 28005KT 10SM CLR M01/M03 A3012 RMK AO2 T10091034
KA08 091455Z AUTO 28005KT 10SM CLR M01/M04 A3012 RMK AO2 T10101036
KA08 091430Z AUTO 27006KT 10SM CLR M01/M03 A3011 RMK AO2 T10151033
KA08 091415Z AUTO 28005KT 10SM CLR M02/M03 A3011 RMK AO2 T10181034
KA08 091355Z AUTO 27004KT 10SM CLR M02/M03 A3011 RMK AO2 T10221035
KA08 091335Z AUTO 28004KT 10SM CLR M03/M04 A3011 RMK AO2 T10261036
KA08 091315Z AUTO 28003KT 10SM CLR M03/M04 A3011 RMK AO2 T10281036
KA08 091255Z AUTO 29005KT 10SM CLR M03/M04 A3011 RMK AO2 T10281036
KA08 091235Z AUTO 30005KT 10SM CLR M03/M04 A3010 RMK AO2 T10271036